AFR46GN EHAM-LFPG
Flight info
| Callsign | AFR46GN |
|---|---|
| Flight time | 0h 56m |
| Altitude | 23000 |
| Route | WOODY N872 DENOX DCT MOPIL |
| Aircraft | A320/M-SDE2E3FGIJ1RWY/HB1 |
Departure
| Time | 2026-05-07 18:44 |
|---|---|
| Airport | Amsterdam Airport Schiphol (EHAM) |
Arrival
| Time | 2026-05-07 19:40 |
|---|---|
| Airport | Charles de Gaulle International Airport (LFPG) |
| Time | Latitude | Longitude | Altitude | Speed | Heading |
|---|---|---|---|---|---|
| 2026-05-07 18:16 | 52.30540 | 4.76522 | -1 ft | 0 kts | 59° |
| 2026-05-07 18:32 | 52.30536 | 4.76513 | -1 ft | 3 kts | 59° |
| 2026-05-07 18:32 | 52.30525 | 4.76480 | -1 ft | 3 kts | 64° |
| 2026-05-07 18:33 | 52.30518 | 4.76447 | -1 ft | 3 kts | 101° |
| 2026-05-07 18:33 | 52.30521 | 4.76431 | -1 ft | 0 kts | 136° |
| 2026-05-07 18:37 | 52.30505 | 4.76443 | -1 ft | 5 kts | 156° |
| 2026-05-07 18:37 | 52.30457 | 4.76485 | -1 ft | 9 kts | 146° |
| 2026-05-07 18:37 | 52.30410 | 4.76536 | -1 ft | 8 kts | 147° |
| 2026-05-07 18:38 | 52.30347 | 4.76589 | -1 ft | 11 kts | 173° |
| 2026-05-07 18:38 | 52.30295 | 4.76522 | -1 ft | 9 kts | 237° |
| 2026-05-07 18:38 | 52.30257 | 4.76423 | -1 ft | 12 kts | 238° |
| 2026-05-07 18:38 | 52.30197 | 4.76264 | -1 ft | 21 kts | 238° |
| 2026-05-07 18:39 | 52.30117 | 4.76055 | -1 ft | 22 kts | 239° |
| 2026-05-07 18:39 | 52.30036 | 4.75846 | -1 ft | 22 kts | 237° |
| 2026-05-07 18:39 | 52.29958 | 4.75643 | -1 ft | 21 kts | 238° |
| 2026-05-07 18:39 | 52.29884 | 4.75449 | -1 ft | 19 kts | 238° |
| 2026-05-07 18:40 | 52.29831 | 4.75269 | -1 ft | 17 kts | 269° |
| 2026-05-07 18:40 | 52.29883 | 4.75119 | -1 ft | 15 kts | 311° |
| 2026-05-07 18:40 | 52.29960 | 4.74977 | -1 ft | 20 kts | 311° |
| 2026-05-07 18:40 | 52.30065 | 4.74782 | 0 ft | 25 kts | 312° |
| 2026-05-07 18:41 | 52.30175 | 4.74578 | 10 ft | 23 kts | 311° |
| 2026-05-07 18:41 | 52.30268 | 4.74409 | 10 ft | 19 kts | 311° |
| 2026-05-07 18:41 | 52.30343 | 4.74263 | -1 ft | 8 kts | 311° |
| 2026-05-07 18:41 | 52.30371 | 4.74173 | -1 ft | 11 kts | 275° |
| 2026-05-07 18:42 | 52.30333 | 4.74053 | -1 ft | 16 kts | 225° |
| 2026-05-07 18:42 | 52.30244 | 4.73943 | -1 ft | 15 kts | 217° |
| 2026-05-07 18:42 | 52.30194 | 4.73815 | -2 ft | 13 kts | 271° |
| 2026-05-07 18:42 | 52.30250 | 4.73742 | -3 ft | 6 kts | 4° |
| 2026-05-07 18:43 | 52.30251 | 4.73742 | -4 ft | 0 kts | 4° |
| 2026-05-07 18:43 | 52.30252 | 4.73742 | -4 ft | 4 kts | 4° |
| 2026-05-07 18:43 | 52.30549 | 4.73771 | -3 ft | 79 kts | 3° |
| 2026-05-07 18:43 | 52.31298 | 4.73840 | -2 ft | 135 kts | 3° |
| 2026-05-07 18:44 | 52.32332 | 4.73941 | 288 ft | 151 kts | 6° |
| 2026-05-07 18:44 | 52.33389 | 4.74147 | 760 ft | 156 kts | 18° |
| 2026-05-07 18:44 | 52.34430 | 4.74744 | 1345 ft | 159 kts | 22° |
| 2026-05-07 18:44 | 52.35463 | 4.75390 | 2001 ft | 160 kts | 23° |
| 2026-05-07 18:45 | 52.36547 | 4.76108 | 2343 ft | 178 kts | 31° |
| 2026-05-07 18:45 | 52.37393 | 4.77667 | 2577 ft | 197 kts | 71° |
| 2026-05-07 18:45 | 52.37413 | 4.79979 | 2891 ft | 216 kts | 103° |
| 2026-05-07 18:45 | 52.37020 | 4.82397 | 3548 ft | 223 kts | 114° |
| 2026-05-07 18:46 | 52.36030 | 4.84318 | 4290 ft | 226 kts | 149° |
| 2026-05-07 18:46 | 52.34476 | 4.85100 | 4701 ft | 248 kts | 176° |
| 2026-05-07 18:46 | 52.32742 | 4.85583 | 5358 ft | 258 kts | 159° |
| 2026-05-07 18:46 | 52.31201 | 4.87148 | 6183 ft | 264 kts | 144° |
| 2026-05-07 18:47 | 52.29745 | 4.89028 | 6991 ft | 269 kts | 143° |
| 2026-05-07 18:47 | 52.28278 | 4.90961 | 7796 ft | 273 kts | 143° |
| 2026-05-07 18:47 | 52.26793 | 4.92927 | 8599 ft | 277 kts | 142° |
| 2026-05-07 18:47 | 52.25271 | 4.94901 | 9375 ft | 282 kts | 144° |
| 2026-05-07 18:48 | 52.23523 | 4.96362 | 10095 ft | 286 kts | 166° |
| 2026-05-07 18:48 | 52.21525 | 4.96577 | 10593 ft | 297 kts | 191° |
| 2026-05-07 18:48 | 52.19502 | 4.95465 | 10802 ft | 319 kts | 204° |
| 2026-05-07 18:48 | 52.17424 | 4.94006 | 11274 ft | 330 kts | 204° |
| 2026-05-07 18:49 | 52.15306 | 4.92508 | 11957 ft | 334 kts | 204° |
| 2026-05-07 18:49 | 52.13158 | 4.90996 | 12676 ft | 338 kts | 204° |
| 2026-05-07 18:49 | 52.10984 | 4.89477 | 13029 ft | 341 kts | 204° |
| 2026-05-07 18:49 | 52.08794 | 4.87960 | 13733 ft | 343 kts | 204° |
| 2026-05-07 18:50 | 52.06586 | 4.86439 | 14395 ft | 346 kts | 204° |
| 2026-05-07 18:50 | 52.04357 | 4.84909 | 15011 ft | 349 kts | 204° |
| 2026-05-07 18:50 | 52.02109 | 4.83366 | 15638 ft | 352 kts | 204° |
| 2026-05-07 18:50 | 51.99841 | 4.81808 | 16259 ft | 355 kts | 204° |
| 2026-05-07 18:51 | 51.97554 | 4.80243 | 16867 ft | 359 kts | 204° |
| 2026-05-07 18:51 | 51.95246 | 4.78664 | 17464 ft | 362 kts | 204° |
| 2026-05-07 18:51 | 51.93013 | 4.77135 | 18028 ft | 365 kts | 204° |
| 2026-05-07 18:51 | 51.90866 | 4.75627 | 18547 ft | 368 kts | 205° |
| 2026-05-07 18:52 | 51.88538 | 4.73867 | 19074 ft | 371 kts | 206° |
| 2026-05-07 18:52 | 51.86213 | 4.72032 | 19613 ft | 373 kts | 207° |
| 2026-05-07 18:52 | 51.83883 | 4.70161 | 20157 ft | 375 kts | 207° |
| 2026-05-07 18:52 | 51.81538 | 4.68280 | 20700 ft | 377 kts | 207° |
| 2026-05-07 18:53 | 51.79150 | 4.66484 | 21235 ft | 381 kts | 200° |
| 2026-05-07 18:53 | 51.76576 | 4.65421 | 21767 ft | 384 kts | 194° |
| 2026-05-07 18:53 | 51.73952 | 4.64490 | 22301 ft | 387 kts | 194° |
| 2026-05-07 18:53 | 51.71314 | 4.63572 | 22817 ft | 389 kts | 194° |
| 2026-05-07 18:54 | 51.68657 | 4.62652 | 23050 ft | 390 kts | 194° |
| 2026-05-07 18:54 | 51.66036 | 4.61748 | 23083 ft | 381 kts | 194° |
| 2026-05-07 18:54 | 51.63447 | 4.60855 | 23088 ft | 384 kts | 194° |
| 2026-05-07 18:54 | 51.60847 | 4.59961 | 23084 ft | 379 kts | 194° |
| 2026-05-07 18:55 | 51.58275 | 4.59070 | 23086 ft | 377 kts | 194° |
| 2026-05-07 18:55 | 51.55717 | 4.58178 | 23085 ft | 376 kts | 194° |
| 2026-05-07 18:55 | 51.53158 | 4.57286 | 23086 ft | 376 kts | 194° |
| 2026-05-07 18:55 | 51.50602 | 4.56397 | 23086 ft | 376 kts | 194° |
| 2026-05-07 18:56 | 51.48080 | 4.55521 | 23082 ft | 376 kts | 194° |
| 2026-05-07 18:56 | 51.45488 | 4.54626 | 23085 ft | 376 kts | 194° |
| 2026-05-07 18:56 | 51.42935 | 4.53746 | 23086 ft | 376 kts | 194° |
| 2026-05-07 18:56 | 51.40379 | 4.52866 | 23086 ft | 376 kts | 194° |
| 2026-05-07 18:57 | 51.37823 | 4.51988 | 23082 ft | 375 kts | 194° |
| 2026-05-07 18:57 | 51.35273 | 4.51112 | 23081 ft | 375 kts | 194° |
| 2026-05-07 18:57 | 51.32720 | 4.50234 | 23081 ft | 375 kts | 194° |
| 2026-05-07 18:57 | 51.30168 | 4.49360 | 23078 ft | 375 kts | 194° |
| 2026-05-07 18:58 | 51.27615 | 4.48490 | 23076 ft | 375 kts | 194° |
| 2026-05-07 18:58 | 51.25067 | 4.47619 | 23073 ft | 375 kts | 194° |
| 2026-05-07 18:58 | 51.22516 | 4.46747 | 23068 ft | 375 kts | 194° |
| 2026-05-07 18:58 | 51.19968 | 4.45877 | 23067 ft | 375 kts | 194° |
| 2026-05-07 18:59 | 51.17418 | 4.45011 | 23069 ft | 375 kts | 194° |
| 2026-05-07 18:59 | 51.14869 | 4.44146 | 23066 ft | 374 kts | 194° |
| 2026-05-07 18:59 | 51.12324 | 4.43280 | 23068 ft | 374 kts | 194° |
| 2026-05-07 18:59 | 51.09776 | 4.42410 | 23069 ft | 374 kts | 194° |
| 2026-05-07 19:00 | 51.07228 | 4.41543 | 23064 ft | 374 kts | 194° |
| 2026-05-07 19:00 | 51.04681 | 4.40681 | 23067 ft | 374 kts | 194° |
| 2026-05-07 19:00 | 51.02134 | 4.39819 | 23068 ft | 374 kts | 194° |
| 2026-05-07 19:00 | 50.99588 | 4.38954 | 23068 ft | 374 kts | 194° |
| 2026-05-07 19:01 | 50.97042 | 4.38088 | 23071 ft | 374 kts | 194° |
| 2026-05-07 19:01 | 50.94496 | 4.37226 | 23070 ft | 374 kts | 194° |
| 2026-05-07 19:01 | 50.91948 | 4.36365 | 23070 ft | 374 kts | 194° |
| 2026-05-07 19:01 | 50.89402 | 4.35510 | 23070 ft | 374 kts | 194° |
| 2026-05-07 19:02 | 50.86851 | 4.34656 | 23070 ft | 374 kts | 194° |
| 2026-05-07 19:02 | 50.84303 | 4.33804 | 23070 ft | 374 kts | 194° |
| 2026-05-07 19:02 | 50.81754 | 4.32950 | 23071 ft | 374 kts | 194° |
| 2026-05-07 19:02 | 50.79205 | 4.32095 | 23061 ft | 375 kts | 194° |
| 2026-05-07 19:03 | 50.76689 | 4.31254 | 23064 ft | 375 kts | 194° |
| 2026-05-07 19:03 | 50.74140 | 4.30397 | 23066 ft | 375 kts | 194° |
| 2026-05-07 19:03 | 50.71591 | 4.29543 | 23065 ft | 375 kts | 194° |
| 2026-05-07 19:03 | 50.69040 | 4.28686 | 23073 ft | 375 kts | 194° |
| 2026-05-07 19:04 | 50.66490 | 4.27827 | 23075 ft | 375 kts | 194° |
| 2026-05-07 19:04 | 50.63940 | 4.26976 | 23078 ft | 375 kts | 194° |
| 2026-05-07 19:04 | 50.61386 | 4.26133 | 23074 ft | 375 kts | 194° |
| 2026-05-07 19:04 | 50.58833 | 4.25288 | 23075 ft | 375 kts | 194° |
| 2026-05-07 19:05 | 50.56280 | 4.24443 | 23058 ft | 375 kts | 194° |
| 2026-05-07 19:05 | 50.53716 | 4.23588 | 23062 ft | 375 kts | 194° |
| 2026-05-07 19:05 | 50.51180 | 4.22741 | 23067 ft | 375 kts | 194° |
| 2026-05-07 19:05 | 50.48628 | 4.21894 | 23067 ft | 375 kts | 194° |
| 2026-05-07 19:06 | 50.46076 | 4.21051 | 23072 ft | 375 kts | 194° |
| 2026-05-07 19:06 | 50.40967 | 4.19373 | 23075 ft | 375 kts | 194° |
| 2026-05-07 19:06 | 50.38415 | 4.18531 | 23070 ft | 375 kts | 194° |
| 2026-05-07 19:07 | 50.35864 | 4.17685 | 23080 ft | 375 kts | 194° |
| 2026-05-07 19:07 | 50.33310 | 4.16844 | 23073 ft | 375 kts | 194° |
| 2026-05-07 19:07 | 50.30756 | 4.16008 | 23075 ft | 375 kts | 194° |
| 2026-05-07 19:07 | 50.28201 | 4.15171 | 23076 ft | 375 kts | 194° |
| 2026-05-07 19:08 | 50.25646 | 4.14332 | 23075 ft | 375 kts | 194° |
| 2026-05-07 19:08 | 50.23093 | 4.13491 | 23076 ft | 375 kts | 194° |
| 2026-05-07 19:08 | 50.20540 | 4.12653 | 23077 ft | 375 kts | 194° |
| 2026-05-07 19:08 | 50.17984 | 4.11819 | 23077 ft | 375 kts | 194° |
| 2026-05-07 19:09 | 50.15450 | 4.11009 | 22823 ft | 368 kts | 192° |
| 2026-05-07 19:09 | 50.12927 | 4.10629 | 22555 ft | 361 kts | 185° |
| 2026-05-07 19:09 | 50.10446 | 4.10451 | 22275 ft | 354 kts | 185° |
| 2026-05-07 19:09 | 50.07992 | 4.10274 | 22007 ft | 352 kts | 185° |
| 2026-05-07 19:10 | 50.05554 | 4.10066 | 21737 ft | 349 kts | 189° |
| 2026-05-07 19:10 | 50.03241 | 4.09090 | 21472 ft | 343 kts | 207° |
| 2026-05-07 19:10 | 50.01114 | 4.07430 | 21217 ft | 342 kts | 209° |
| 2026-05-07 19:10 | 49.98998 | 4.05747 | 20968 ft | 341 kts | 209° |
| 2026-05-07 19:11 | 49.96893 | 4.04069 | 20698 ft | 340 kts | 209° |
| 2026-05-07 19:11 | 49.94793 | 4.02396 | 20443 ft | 339 kts | 209° |
| 2026-05-07 19:11 | 49.92700 | 4.00733 | 20193 ft | 337 kts | 209° |
| 2026-05-07 19:11 | 49.90614 | 3.99075 | 19941 ft | 336 kts | 209° |
| 2026-05-07 19:12 | 49.88534 | 3.97423 | 19685 ft | 335 kts | 209° |
| 2026-05-07 19:12 | 49.86464 | 3.95781 | 19440 ft | 334 kts | 209° |
| 2026-05-07 19:12 | 49.84402 | 3.94145 | 19199 ft | 333 kts | 209° |
| 2026-05-07 19:12 | 49.82345 | 3.92516 | 18963 ft | 331 kts | 209° |
| 2026-05-07 19:13 | 49.80294 | 3.90894 | 18717 ft | 330 kts | 209° |
| 2026-05-07 19:13 | 49.78250 | 3.89276 | 18481 ft | 329 kts | 209° |
| 2026-05-07 19:13 | 49.76212 | 3.87669 | 18228 ft | 328 kts | 209° |
| 2026-05-07 19:13 | 49.74181 | 3.86070 | 17954 ft | 327 kts | 209° |
| 2026-05-07 19:14 | 49.72158 | 3.84472 | 17678 ft | 326 kts | 209° |
| 2026-05-07 19:14 | 49.70143 | 3.82882 | 17409 ft | 324 kts | 208° |
| 2026-05-07 19:14 | 49.68136 | 3.81304 | 17138 ft | 323 kts | 209° |
| 2026-05-07 19:14 | 49.66137 | 3.79734 | 16874 ft | 322 kts | 208° |
| 2026-05-07 19:15 | 49.64148 | 3.78174 | 16611 ft | 320 kts | 208° |
| 2026-05-07 19:15 | 49.62164 | 3.76624 | 16352 ft | 319 kts | 208° |
| 2026-05-07 19:15 | 49.60186 | 3.75081 | 16093 ft | 318 kts | 208° |
| 2026-05-07 19:15 | 49.58219 | 3.73541 | 15837 ft | 317 kts | 208° |
| 2026-05-07 19:16 | 49.56258 | 3.72005 | 15590 ft | 315 kts | 208° |
| 2026-05-07 19:16 | 49.54966 | 3.70992 | 15423 ft | 315 kts | 208° |
| 2026-05-07 19:16 | 49.53017 | 3.69466 | 15173 ft | 314 kts | 208° |
| 2026-05-07 19:16 | 49.51077 | 3.67948 | 14929 ft | 312 kts | 208° |
| 2026-05-07 19:17 | 49.49142 | 3.66435 | 14681 ft | 311 kts | 208° |
| 2026-05-07 19:17 | 49.47271 | 3.64788 | 14435 ft | 309 kts | 218° |
| 2026-05-07 19:17 | 49.45714 | 3.62544 | 14186 ft | 306 kts | 232° |
| 2026-05-07 19:17 | 49.44580 | 3.59798 | 13946 ft | 304 kts | 245° |
| 2026-05-07 19:18 | 49.43906 | 3.56726 | 13700 ft | 304 kts | 255° |
| 2026-05-07 19:18 | 49.43369 | 3.53587 | 13431 ft | 304 kts | 255° |
| 2026-05-07 19:18 | 49.42835 | 3.50453 | 13173 ft | 303 kts | 255° |
| 2026-05-07 19:18 | 49.42304 | 3.47326 | 13046 ft | 302 kts | 255° |
| 2026-05-07 19:19 | 49.41701 | 3.44239 | 13064 ft | 302 kts | 248° |
| 2026-05-07 19:19 | 49.40904 | 3.41245 | 13067 ft | 303 kts | 247° |
| 2026-05-07 19:19 | 49.40105 | 3.38258 | 13068 ft | 303 kts | 247° |
| 2026-05-07 19:19 | 49.39302 | 3.35267 | 13067 ft | 303 kts | 247° |
| 2026-05-07 19:20 | 49.38499 | 3.32279 | 13065 ft | 303 kts | 247° |
| 2026-05-07 19:20 | 49.37698 | 3.29292 | 13065 ft | 303 kts | 247° |
| 2026-05-07 19:20 | 49.36894 | 3.26305 | 13065 ft | 303 kts | 247° |
| 2026-05-07 19:20 | 49.36091 | 3.23321 | 13065 ft | 303 kts | 247° |
| 2026-05-07 19:21 | 49.35289 | 3.20338 | 13070 ft | 303 kts | 247° |
| 2026-05-07 19:21 | 49.34487 | 3.17353 | 13068 ft | 302 kts | 247° |
| 2026-05-07 19:21 | 49.33685 | 3.14372 | 13005 ft | 303 kts | 247° |
| 2026-05-07 19:21 | 49.32881 | 3.11385 | 12549 ft | 304 kts | 247° |
| 2026-05-07 19:22 | 49.32074 | 3.08391 | 12122 ft | 303 kts | 247° |
| 2026-05-07 19:22 | 49.31270 | 3.05423 | 11841 ft | 300 kts | 247° |
| 2026-05-07 19:22 | 49.30467 | 3.02476 | 11605 ft | 299 kts | 247° |
| 2026-05-07 19:22 | 49.29668 | 2.99540 | 11369 ft | 299 kts | 247° |
| 2026-05-07 19:23 | 49.28870 | 2.96604 | 11147 ft | 298 kts | 247° |
| 2026-05-07 19:23 | 49.28075 | 2.93681 | 11050 ft | 297 kts | 247° |
| 2026-05-07 19:23 | 49.27277 | 2.90754 | 11065 ft | 298 kts | 247° |
| 2026-05-07 19:23 | 49.26481 | 2.87827 | 11067 ft | 297 kts | 247° |
| 2026-05-07 19:24 | 49.25702 | 2.84964 | 11070 ft | 288 kts | 247° |
| 2026-05-07 19:24 | 49.24931 | 2.82143 | 11073 ft | 287 kts | 247° |
| 2026-05-07 19:24 | 49.24161 | 2.79333 | 11068 ft | 286 kts | 247° |
| 2026-05-07 19:24 | 49.23393 | 2.76527 | 11066 ft | 286 kts | 247° |
| 2026-05-07 19:25 | 49.22622 | 2.73718 | 11064 ft | 286 kts | 246° |
| 2026-05-07 19:25 | 49.21849 | 2.70916 | 11060 ft | 286 kts | 246° |
| 2026-05-07 19:25 | 49.21075 | 2.68113 | 11057 ft | 286 kts | 246° |
| 2026-05-07 19:25 | 49.20301 | 2.65308 | 11061 ft | 286 kts | 247° |
| 2026-05-07 19:26 | 49.19527 | 2.62514 | 11060 ft | 285 kts | 247° |
| 2026-05-07 19:26 | 49.18759 | 2.59732 | 11060 ft | 285 kts | 247° |
| 2026-05-07 19:26 | 49.18165 | 2.56830 | 11059 ft | 285 kts | 260° |
| 2026-05-07 19:26 | 49.18030 | 2.53808 | 11062 ft | 286 kts | 268° |
| 2026-05-07 19:27 | 49.17977 | 2.50766 | 11060 ft | 286 kts | 268° |
| 2026-05-07 19:27 | 49.17914 | 2.47727 | 11057 ft | 286 kts | 267° |
| 2026-05-07 19:27 | 49.17843 | 2.44692 | 11059 ft | 286 kts | 267° |
| 2026-05-07 19:27 | 49.17772 | 2.41652 | 11058 ft | 286 kts | 267° |
| 2026-05-07 19:28 | 49.17701 | 2.38614 | 11059 ft | 286 kts | 267° |
| 2026-05-07 19:28 | 49.17636 | 2.35570 | 10841 ft | 287 kts | 267° |
| 2026-05-07 19:28 | 49.17566 | 2.32546 | 10345 ft | 282 kts | 267° |
| 2026-05-07 19:28 | 49.17493 | 2.29566 | 9685 ft | 279 kts | 267° |
| 2026-05-07 19:29 | 49.17419 | 2.26613 | 8988 ft | 277 kts | 267° |
| 2026-05-07 19:29 | 49.17342 | 2.23691 | 8305 ft | 274 kts | 267° |
| 2026-05-07 19:29 | 49.17260 | 2.20793 | 7631 ft | 272 kts | 268° |
| 2026-05-07 19:29 | 49.17158 | 2.17920 | 6952 ft | 270 kts | 267° |
| 2026-05-07 19:30 | 49.17041 | 2.15072 | 6280 ft | 268 kts | 267° |
| 2026-05-07 19:30 | 49.16924 | 2.12279 | 5624 ft | 267 kts | 267° |
| 2026-05-07 19:30 | 49.16811 | 2.09445 | 5234 ft | 268 kts | 267° |
| 2026-05-07 19:30 | 49.16703 | 2.06610 | 4854 ft | 267 kts | 267° |
| 2026-05-07 19:31 | 49.16401 | 2.03837 | 4446 ft | 265 kts | 246° |
| 2026-05-07 19:31 | 49.15336 | 2.01608 | 4073 ft | 259 kts | 216° |
| 2026-05-07 19:31 | 49.13750 | 2.00563 | 3998 ft | 242 kts | 185° |
| 2026-05-07 19:31 | 49.12149 | 2.00800 | 4006 ft | 227 kts | 165° |
| 2026-05-07 19:32 | 49.10630 | 2.01436 | 4008 ft | 226 kts | 162° |
| 2026-05-07 19:32 | 49.09125 | 2.02124 | 4009 ft | 226 kts | 162° |
| 2026-05-07 19:32 | 49.07622 | 2.02824 | 4009 ft | 226 kts | 162° |
| 2026-05-07 19:32 | 49.06117 | 2.03530 | 4011 ft | 226 kts | 162° |
| 2026-05-07 19:33 | 49.04613 | 2.04240 | 4007 ft | 226 kts | 162° |
| 2026-05-07 19:33 | 49.03109 | 2.04947 | 4011 ft | 226 kts | 162° |
| 2026-05-07 19:33 | 49.01655 | 2.05840 | 4007 ft | 225 kts | 143° |
| 2026-05-07 19:33 | 49.00593 | 2.07558 | 4016 ft | 224 kts | 118° |
| 2026-05-07 19:34 | 49.00125 | 2.09796 | 4010 ft | 224 kts | 93° |
| 2026-05-07 19:34 | 49.00202 | 2.12155 | 4011 ft | 224 kts | 84° |
| 2026-05-07 19:34 | 49.00348 | 2.14514 | 4011 ft | 224 kts | 84° |
| 2026-05-07 19:34 | 49.00487 | 2.16870 | 4004 ft | 219 kts | 85° |
| 2026-05-07 19:35 | 49.00615 | 2.19103 | 3997 ft | 205 kts | 85° |
| 2026-05-07 19:35 | 49.00736 | 2.21229 | 4003 ft | 200 kts | 85° |
| 2026-05-07 19:35 | 49.00856 | 2.23335 | 4007 ft | 200 kts | 85° |
| 2026-05-07 19:35 | 49.00975 | 2.25451 | 3873 ft | 200 kts | 85° |
| 2026-05-07 19:36 | 49.01092 | 2.27519 | 3672 ft | 193 kts | 85° |
| 2026-05-07 19:36 | 49.01205 | 2.29526 | 3404 ft | 188 kts | 85° |
| 2026-05-07 19:36 | 49.01314 | 2.31479 | 3157 ft | 183 kts | 85° |
| 2026-05-07 19:36 | 49.01421 | 2.33388 | 2901 ft | 178 kts | 85° |
| 2026-05-07 19:37 | 49.01522 | 2.35198 | 2657 ft | 164 kts | 85° |
| 2026-05-07 19:37 | 49.01615 | 2.36862 | 2466 ft | 150 kts | 85° |
| 2026-05-07 19:37 | 49.01700 | 2.38399 | 2257 ft | 143 kts | 85° |
| 2026-05-07 19:37 | 49.01782 | 2.39888 | 2066 ft | 139 kts | 85° |
| 2026-05-07 19:38 | 49.01863 | 2.41355 | 1883 ft | 139 kts | 85° |
| 2026-05-07 19:38 | 49.01942 | 2.42788 | 1695 ft | 137 kts | 85° |
| 2026-05-07 19:38 | 49.02025 | 2.44238 | 1512 ft | 138 kts | 85° |
| 2026-05-07 19:38 | 49.02104 | 2.45691 | 1325 ft | 137 kts | 85° |
| 2026-05-07 19:39 | 49.02181 | 2.47138 | 1070 ft | 137 kts | 85° |
| 2026-05-07 19:39 | 49.02261 | 2.48582 | 850 ft | 137 kts | 84° |
| 2026-05-07 19:39 | 49.02333 | 2.50025 | 652 ft | 137 kts | 85° |
| 2026-05-07 19:39 | 49.02415 | 2.51461 | 521 ft | 136 kts | 84° |
| 2026-05-07 19:40 | 49.02494 | 2.52891 | 367 ft | 135 kts | 84° |
| 2026-05-07 19:40 | 49.02560 | 2.54120 | 354 ft | 93 kts | 85° |
| 2026-05-07 19:40 | 49.02600 | 2.54851 | 353 ft | 47 kts | 85° |
| 2026-05-07 19:40 | 49.02597 | 2.55167 | 356 ft | 25 kts | 107° |
| 2026-05-07 19:41 | 49.02549 | 2.55360 | 360 ft | 16 kts | 115° |
| 2026-05-07 19:41 | 49.02498 | 2.55519 | 358 ft | 17 kts | 115° |
| 2026-05-07 19:41 | 49.02416 | 2.55611 | 360 ft | 12 kts | 174° |
| 2026-05-07 19:41 | 49.02364 | 2.55617 | 355 ft | 7 kts | 175° |
| 2026-05-07 19:42 | 49.02319 | 2.55624 | 361 ft | 7 kts | 174° |
| 2026-05-07 19:42 | 49.02255 | 2.55632 | 354 ft | 11 kts | 176° |
| 2026-05-07 19:42 | 49.02177 | 2.55641 | 361 ft | 13 kts | 175° |
| 2026-05-07 19:42 | 49.02080 | 2.55653 | 358 ft | 13 kts | 175° |
| 2026-05-07 19:43 | 49.01993 | 2.55664 | 354 ft | 12 kts | 175° |
| 2026-05-07 19:43 | 49.01919 | 2.55678 | 356 ft | 10 kts | 160° |
| 2026-05-07 19:43 | 49.01896 | 2.55758 | 354 ft | 8 kts | 85° |
| 2026-05-07 19:43 | 49.01904 | 2.55883 | 357 ft | 15 kts | 85° |
| 2026-05-07 19:44 | 49.01913 | 2.56053 | 354 ft | 17 kts | 85° |
| 2026-05-07 19:44 | 49.01922 | 2.56233 | 354 ft | 17 kts | 85° |
| 2026-05-07 19:44 | 49.01932 | 2.56420 | 360 ft | 18 kts | 86° |
| 2026-05-07 19:44 | 49.01942 | 2.56617 | 354 ft | 19 kts | 85° |
| 2026-05-07 19:45 | 49.01954 | 2.56825 | 354 ft | 20 kts | 84° |
| 2026-05-07 19:45 | 49.01965 | 2.57041 | 360 ft | 21 kts | 85° |
| 2026-05-07 19:45 | 49.01978 | 2.57266 | 357 ft | 22 kts | 84° |
| 2026-05-07 19:45 | 49.01989 | 2.57499 | 354 ft | 22 kts | 86° |
| 2026-05-07 19:46 | 49.01998 | 2.57732 | 354 ft | 20 kts | 90° |
| 2026-05-07 19:46 | 49.01935 | 2.57919 | 358 ft | 21 kts | 135° |
| 2026-05-07 19:46 | 49.01799 | 2.57991 | 360 ft | 22 kts | 175° |
| 2026-05-07 19:46 | 49.01644 | 2.58011 | 354 ft | 23 kts | 176° |
| 2026-05-07 19:47 | 49.01481 | 2.58030 | 354 ft | 24 kts | 175° |
| 2026-05-07 19:47 | 49.01312 | 2.58053 | 354 ft | 25 kts | 177° |
| 2026-05-07 19:47 | 49.01138 | 2.58073 | 356 ft | 26 kts | 174° |
| 2026-05-07 19:47 | 49.00990 | 2.58090 | 354 ft | 16 kts | 175° |
| 2026-05-07 19:48 | 49.00913 | 2.58038 | 360 ft | 13 kts | 234° |
| 2026-05-07 19:48 | 49.00897 | 2.57906 | 354 ft | 13 kts | 265° |
| 2026-05-07 19:48 | 49.00890 | 2.57761 | 354 ft | 15 kts | 264° |
| 2026-05-07 19:48 | 49.00881 | 2.57597 | 358 ft | 16 kts | 266° |
| 2026-05-07 19:49 | 49.00871 | 2.57416 | 354 ft | 17 kts | 265° |
| 2026-05-07 19:49 | 49.00862 | 2.57266 | 354 ft | 12 kts | 261° |
| 2026-05-07 19:49 | 49.00824 | 2.57213 | 356 ft | 7 kts | 178° |
| 2026-05-07 19:49 | 49.00772 | 2.57218 | 354 ft | 8 kts | 175° |
| 2026-05-07 19:50 | 49.00721 | 2.57262 | 361 ft | 9 kts | 126° |
| 2026-05-07 19:50 | 49.00679 | 2.57325 | 358 ft | 4 kts | 136° |
| 2026-05-07 19:50 | 49.00676 | 2.57328 | 358 ft | 0 kts | 136° |